Terminal Aerodrome Forecast
Issued by NWS Wakefield, VA

Home | Current Version | Previous Version | Text Only | Print | Product List | Glossary On
Versions: 1 2 3 4 5 6 7 8 9 10 11 12 13 14 15 16
978
FTUS41 KAKQ 240536
TAFECG
TAF
KECG 240536Z 2406/2506 11005KT P6SM SKC
     FM241400 20008KT P6SM SKC
     FM241700 22012G20KT P6SM SKC
     FM242200 21008KT P6SM SKC=

USA.gov is the U.S. government's official web portal to all federal, state and local government web resources and services.